createdAt,value
2023-01-09T00:01:37.152Z,-22645.29
2023-01-09T00:04:04.204Z,-22647.07
2023-01-09T00:06:31.161Z,-22648.75
2023-01-09T00:08:57.995Z,-22651.01
2023-01-09T00:11:24.916Z,-22652.89
2023-01-09T00:13:51.792Z,-22654.67
2023-01-09T00:16:18.723Z,-22655.67
2023-01-09T00:18:45.653Z,-22655.63
2023-01-09T00:21:13.368Z,-22656.01
2023-01-09T00:23:40.319Z,-22656.04
2023-01-09T00:26:10.038Z,-22655.32
2023-01-09T00:28:36.899Z,-22654.88
2023-01-09T00:31:05.319Z,-22653.65
2023-01-09T00:33:37.309Z,-22652.65
2023-01-09T00:36:04.450Z,-22651.56
2023-01-09T00:38:31.516Z,-22650.67
2023-01-09T00:40:58.460Z,-22650.53
2023-01-09T00:43:28.508Z,-22650.94
2023-01-09T00:45:55.421Z,-22651.53
2023-01-09T00:48:26.937Z,-22653.17
2023-01-09T00:50:54.400Z,-22655.57
2023-01-09T00:53:23.620Z,-22658.20
2023-01-09T00:55:51.762Z,-22659.26
2023-01-09T00:58:19.780Z,-22659.98
2023-01-09T01:00:47.035Z,-22660.98
2023-01-09T01:03:13.893Z,-22662.28
2023-01-09T01:05:59.755Z,-22663.17
2023-01-09T01:08:26.673Z,-22663.79
2023-01-09T01:10:53.681Z,-22663.51
2023-01-09T01:13:20.570Z,-22662.28
2023-01-09T01:15:47.549Z,-22661.18
2023-01-09T01:18:14.803Z,-22659.95
2023-01-09T01:20:42.777Z,-22658.65
2023-01-09T01:23:09.722Z,-22658.20
2023-01-09T01:25:41.144Z,-22657.38
2023-01-09T01:28:08.267Z,-22656.08
2023-01-09T01:30:39.878Z,-22655.22
2023-01-09T01:33:06.931Z,-22654.57
2023-01-09T01:35:33.936Z,-22654.91
2023-01-09T01:38:01.008Z,-22656.18
2023-01-09T01:40:28.207Z,-22657.76
2023-01-09T01:42:55.765Z,-22658.89
2023-01-09T01:45:27.481Z,-22660.53
2023-01-09T01:47:59.009Z,-22661.97
2023-01-09T01:50:33.342Z,-22663.51
2023-01-09T01:53:06.159Z,-22664.40
2023-01-09T01:55:35.099Z,-22666.56
2023-01-09T01:58:03.455Z,-22666.73
2023-01-09T02:00:32.983Z,-22665.74
2023-01-09T02:03:00.266Z,-22663.65
2023-01-09T02:05:27.197Z,-22662.42
2023-01-09T02:07:54.070Z,-22661.08
2023-01-09T02:10:23.691Z,-22659.64
2023-01-09T02:12:51.055Z,-22658.68
2023-01-09T02:15:17.922Z,-22657.52
2023-01-09T02:18:00.145Z,-22658.17
2023-01-09T02:20:36.482Z,-22657.00
2023-01-09T02:23:29.120Z,-22654.06
2023-01-09T02:26:02.190Z,-22652.82
2023-01-09T02:29:14.216Z,-22652.45
2023-01-09T02:31:43.752Z,-22653.17
2023-01-09T02:34:33.200Z,-22652.86
2023-01-09T02:37:14.519Z,-22652.72
2023-01-09T02:40:01.042Z,-22653.13
2023-01-09T02:42:27.906Z,-22651.63
2023-01-09T02:44:54.815Z,-22650.77
2023-01-09T02:47:21.710Z,-22650.33
2023-01-09T02:49:56.327Z,-22649.95
2023-01-09T02:52:35.365Z,-22649.37
2023-01-09T02:55:27.422Z,-22648.99
2023-01-09T02:58:23.435Z,-22648.10
2023-01-09T03:00:58.572Z,-22646.87
2023-01-09T03:03:45.079Z,-22647.24
2023-01-09T03:06:33.357Z,-22646.66
2023-01-09T03:09:03.161Z,-22646.52
2023-01-09T03:11:32.649Z,-22647.21
2023-01-09T03:14:04.381Z,-22647.07
2023-01-09T03:16:40.134Z,-22647.34
2023-01-09T03:19:11.023Z,-22647.11
2023-01-09T03:21:37.928Z,-22647.24
2023-01-09T03:24:05.142Z,-22647.38
2023-01-09T03:26:32.015Z,-22648.20
2023-01-09T03:28:59.063Z,-22649.33
2023-01-09T03:31:26.036Z,-22650.22
2023-01-09T03:33:53.020Z,-22649.13
2023-01-09T03:36:20.738Z,-22648.51
2023-01-09T03:38:47.701Z,-22648.20
2023-01-09T03:41:14.594Z,-22647.76
2023-01-09T03:43:41.463Z,-22647.00
2023-01-09T03:46:08.352Z,-22647.11
2023-01-09T03:48:35.374Z,-22647.96
2023-01-09T03:51:02.243Z,-22648.75
2023-01-09T03:53:29.333Z,-22648.44
2023-01-09T14:28:00.054Z,-22763.75
2023-01-09T14:30:26.947Z,-22774.45
2023-01-09T14:33:18.969Z,-22777.22
2023-01-09T14:35:59.101Z,-22778.07
2023-01-09T14:38:51.782Z,-22778.66
2023-01-09T14:42:03.767Z,-22779.17
2023-01-09T14:44:32.551Z,-22779.89
2023-01-09T14:47:27.014Z,-22780.50
2023-01-09T14:50:04.291Z,-22781.70
2023-01-09T14:52:34.292Z,-22782.72
2023-01-09T14:55:02.481Z,36091.28
2023-01-09T14:57:31.092Z,-1.00
2023-01-09T15:00:13.561Z,-1.00
2023-01-09T15:02:41.479Z,-1.00
2023-01-09T15:05:13.060Z,-1.00
2023-01-09T15:08:09.391Z,-1.00
2023-01-09T15:10:43.596Z,-1.00
2023-01-09T15:13:15.290Z,-1.00
2023-01-09T15:15:46.844Z,-1.00
2023-01-09T15:18:19.354Z,-1.00
2023-01-09T15:20:47.114Z,-1.00
2023-01-09T15:23:25.444Z,-1.00
2023-01-09T15:25:52.507Z,-1.00
2023-01-09T15:28:25.527Z,-1.00
2023-01-09T15:31:04.902Z,-1.00
2023-01-09T15:33:32.321Z,-1.00
2023-01-09T15:36:02.815Z,-1.00
2023-01-09T15:38:31.528Z,-1.00
2023-01-09T15:41:05.092Z,-1.00
2023-01-09T15:43:31.973Z,-1.00
2023-01-09T15:45:59.050Z,-1.00
2023-01-09T15:48:28.054Z,-1.00
2023-01-09T15:51:04.609Z,-1.00
2023-01-09T15:53:31.663Z,-1.00
2023-01-09T15:56:20.464Z,-1.00
2023-01-09T15:58:54.183Z,-1.00
2023-01-09T16:01:40.193Z,-1.00
2023-01-09T16:04:15.826Z,-1.00
2023-01-09T16:06:48.122Z,-1.00
2023-01-09T16:09:23.458Z,-1.00
2023-01-09T16:11:53.222Z,-1.00
2023-01-09T16:14:30.822Z,-1.00
2023-01-09T16:17:02.775Z,-1.00
2023-01-09T16:19:49.191Z,-1.00
2023-01-09T16:22:32.948Z,-1.00
2023-01-09T16:25:01.417Z,-1.00
2023-01-09T16:27:31.277Z,-1.00
2023-01-09T16:30:08.835Z,-1.00
2023-01-09T16:32:45.387Z,-1.00
2023-01-09T16:35:17.025Z,-1.00
2023-01-09T16:37:43.776Z,-1.00
2023-01-09T16:40:23.050Z,-1.00
2023-01-09T16:43:01.986Z,-1.00
2023-01-09T16:45:33.884Z,-1.00
2023-01-09T16:48:01.458Z,-1.00
2023-01-09T16:50:28.396Z,-1.00
2023-01-09T16:52:56.172Z,-1.00
2023-01-09T16:55:23.073Z,-1.00
2023-01-09T16:57:49.943Z,-1.00
2023-01-09T17:00:20.409Z,-1.00
2023-01-09T17:02:48.296Z,-1.00
2023-01-09T17:05:15.411Z,-1.00
2023-01-09T17:07:42.324Z,-1.00
2023-01-09T17:10:16.279Z,-1.00
2023-01-09T17:12:43.632Z,-1.00
2023-01-09T17:15:10.708Z,-1.00
2023-01-09T17:17:37.536Z,-1.00
2023-01-09T17:20:13.844Z,-1.00
2023-01-09T17:22:40.797Z,-1.00
2023-01-09T17:25:34.783Z,-1.00
2023-01-09T17:28:21.369Z,-1.00
2023-01-09T17:30:48.349Z,-1.00
2023-01-09T17:33:19.086Z,-1.00
2023-01-09T17:35:46.081Z,-1.00
2023-01-09T17:38:16.358Z,-1.00
2023-01-09T17:40:43.487Z,-1.00
2023-01-09T17:43:10.467Z,-1.00
2023-01-09T17:45:38.233Z,-1.00
2023-01-09T17:48:05.447Z,-1.00
2023-01-09T17:50:34.778Z,-1.00
2023-01-09T21:33:39.170Z,-22787.79
2023-01-09T21:36:06.754Z,-22791.00
2023-01-09T21:38:33.722Z,-22789.67
2023-01-09T21:41:20.635Z,-22787.82
2023-01-09T21:44:06.426Z,-22786.83
2023-01-09T21:46:51.842Z,-22785.53
2023-01-09T21:49:19.856Z,-22784.50
2023-01-09T21:51:46.719Z,-22783.24
2023-01-09T21:54:13.730Z,-22782.07
2023-01-09T21:56:40.664Z,-22781.63
2023-01-09T21:59:07.700Z,-22780.85
2023-01-09T22:01:34.867Z,-22780.40
2023-01-09T22:04:01.925Z,-22779.37
2023-01-09T22:06:28.997Z,-22778.76
2023-01-09T22:08:56.371Z,-22778.14
2023-01-09T22:11:23.318Z,-22777.77
2023-01-09T22:13:50.637Z,-22777.12
2023-01-09T22:16:17.686Z,-22776.50
2023-01-09T22:18:44.665Z,-22775.68
2023-01-09T22:21:11.713Z,-22774.21
2023-01-09T22:23:38.706Z,-22772.71
2023-01-09T22:26:13.258Z,-22771.61
2023-01-09T22:28:40.470Z,-22770.89
2023-01-09T22:31:15.439Z,-22770.96
2023-01-09T22:33:42.432Z,-22770.45
2023-01-09T22:36:10.977Z,-22769.25
2023-01-09T22:38:37.895Z,-22767.82
2023-01-09T22:41:05.035Z,-22766.21
2023-01-09T22:43:31.961Z,-22765.08
2023-01-09T22:46:03.063Z,-22763.79
2023-01-09T22:48:31.961Z,-22762.52
2023-01-09T22:51:00.791Z,-22761.32
2023-01-09T22:53:28.668Z,-22759.82
2023-01-09T22:55:57.002Z,-22759.64
2023-01-09T22:58:25.094Z,-22759.34
2023-01-09T23:00:52.453Z,-22758.99
2023-01-09T23:03:19.368Z,-22758.34
2023-01-09T23:05:46.279Z,-22757.59
2023-01-09T23:08:14.324Z,-22756.70
2023-01-09T23:10:41.373Z,-22755.64
2023-01-09T23:13:08.313Z,-22755.06
2023-01-09T23:15:35.344Z,-22754.99
2023-01-09T23:18:02.299Z,-22754.82
2023-01-09T23:20:29.225Z,-22754.58
2023-01-09T23:22:58.852Z,-22754.07
2023-01-09T23:25:25.962Z,-22754.07
2023-01-09T23:27:53.263Z,-22754.31
2023-01-09T23:30:20.207Z,-22754.55
2023-01-09T23:32:47.190Z,-22755.00
2023-01-09T23:35:16.260Z,-22755.57
2023-01-09T23:37:43.791Z,-22755.47
2023-01-09T23:40:12.311Z,-22754.69
2023-01-09T23:42:58.396Z,-22754.18
2023-01-09T23:45:25.445Z,-22754.48
2023-01-09T23:47:52.391Z,-22754.34
2023-01-09T23:50:19.336Z,-22753.83
